TGL78TL LFBZ-LICC
Flight info
| Callsign | TGL78TL |
|---|---|
| Flight time | 2h 13m |
| Altitude | 35000 |
| Route | SOVOS G17 ORTEZ DCT TBO DCT PERDU N862 POSSY/N0439F360 M601 BCN N725 ORKUM M603 ELSAG DCT ALG/N0438F370 DCT QUENN DCT RONAB DCT BEKIV/N0348F190 M871 LIBRO |
| Aircraft | A320/M-SDE3FGHIRWY/LB1 |
Departure
| Time | 2026-04-25 09:20 |
|---|---|
| Airport | Biarritz Pays Basque airport (LFBZ) |
Arrival
| Time | 2026-04-25 11:34 |
|---|---|
| Airport | Catania-Fontanarossa Airport (LICC) |
| Time | Latitude | Longitude | Altitude | Speed | Heading |
|---|---|---|---|---|---|
| 2026-04-25 08:38 | 43.47116 | -1.53119 | 257 ft | 0 kts | 14° |
| 2026-04-25 09:05 | 43.47114 | -1.53119 | 256 ft | 2 kts | 14° |
| 2026-04-25 09:05 | 43.47089 | -1.53126 | 256 ft | 4 kts | 359° |
| 2026-04-25 09:05 | 43.47065 | -1.53118 | 256 ft | 4 kts | 312° |
| 2026-04-25 09:06 | 43.47060 | -1.53100 | 256 ft | 1 kts | 250° |
| 2026-04-25 09:06 | 43.47061 | -1.53095 | 256 ft | 0 kts | 250° |
| 2026-04-25 09:10 | 43.47061 | -1.53096 | 256 ft | 1 kts | 250° |
| 2026-04-25 09:10 | 43.47055 | -1.53120 | 256 ft | 5 kts | 252° |
| 2026-04-25 09:10 | 43.47042 | -1.53169 | 257 ft | 5 kts | 242° |
| 2026-04-25 09:11 | 43.46983 | -1.53207 | 257 ft | 4 kts | 185° |
| 2026-04-25 09:11 | 43.46960 | -1.53199 | 257 ft | 3 kts | 154° |
| 2026-04-25 09:11 | 43.46945 | -1.53190 | 257 ft | 1 kts | 155° |
| 2026-04-25 09:12 | 43.46944 | -1.53189 | 257 ft | 0 kts | 155° |
| 2026-04-25 09:14 | 43.46943 | -1.53188 | 257 ft | 2 kts | 155° |
| 2026-04-25 09:14 | 43.46908 | -1.53166 | 256 ft | 7 kts | 155° |
| 2026-04-25 09:14 | 43.46856 | -1.53132 | 256 ft | 8 kts | 147° |
| 2026-04-25 09:14 | 43.46831 | -1.53056 | 256 ft | 13 kts | 95° |
| 2026-04-25 09:15 | 43.46832 | -1.52941 | 255 ft | 12 kts | 88° |
| 2026-04-25 09:15 | 43.46834 | -1.52835 | 254 ft | 11 kts | 90° |
| 2026-04-25 09:15 | 43.46835 | -1.52720 | 253 ft | 12 kts | 89° |
| 2026-04-25 09:15 | 43.46837 | -1.52608 | 253 ft | 12 kts | 89° |
| 2026-04-25 09:16 | 43.46838 | -1.52484 | 252 ft | 12 kts | 89° |
| 2026-04-25 09:16 | 43.46843 | -1.52320 | 251 ft | 25 kts | 86° |
| 2026-04-25 09:16 | 43.46842 | -1.52078 | 249 ft | 25 kts | 90° |
| 2026-04-25 09:16 | 43.46844 | -1.51837 | 247 ft | 25 kts | 87° |
| 2026-04-25 09:17 | 43.46850 | -1.51321 | 243 ft | 29 kts | 89° |
| 2026-04-25 09:17 | 43.46851 | -1.51139 | 242 ft | 9 kts | 90° |
| 2026-04-25 09:17 | 43.46855 | -1.51059 | 242 ft | 8 kts | 73° |
| 2026-04-25 09:18 | 43.46880 | -1.51005 | 242 ft | 6 kts | 55° |
| 2026-04-25 09:18 | 43.46879 | -1.50967 | 242 ft | 4 kts | 146° |
| 2026-04-25 09:18 | 43.46853 | -1.50973 | 241 ft | 3 kts | 221° |
| 2026-04-25 09:18 | 43.46853 | -1.50987 | 241 ft | 0 kts | 271° |
| 2026-04-25 09:19 | 43.46852 | -1.51116 | 242 ft | 45 kts | 269° |
| 2026-04-25 09:20 | 43.46843 | -1.51883 | 248 ft | 112 kts | 269° |
| 2026-04-25 09:20 | 43.46835 | -1.53166 | 463 ft | 144 kts | 269° |
| 2026-04-25 09:20 | 43.46835 | -1.54547 | 1170 ft | 146 kts | 270° |
| 2026-04-25 09:20 | 43.46820 | -1.55936 | 1966 ft | 146 kts | 269° |
| 2026-04-25 09:21 | 43.46797 | -1.57413 | 2517 ft | 163 kts | 270° |
| 2026-04-25 09:21 | 43.46773 | -1.59056 | 2880 ft | 178 kts | 270° |
| 2026-04-25 09:21 | 43.46542 | -1.60779 | 3267 ft | 196 kts | 241° |
| 2026-04-25 09:21 | 43.45423 | -1.61982 | 3536 ft | 221 kts | 197° |
| 2026-04-25 09:22 | 43.43850 | -1.61803 | 3986 ft | 240 kts | 155° |
| 2026-04-25 09:22 | 43.42646 | -1.60207 | 4681 ft | 247 kts | 118° |
| 2026-04-25 09:22 | 43.42043 | -1.57986 | 5416 ft | 250 kts | 104° |
| 2026-04-25 09:22 | 43.41665 | -1.55665 | 6297 ft | 247 kts | 101° |
| 2026-04-25 09:23 | 43.41310 | -1.53345 | 7069 ft | 249 kts | 102° |
| 2026-04-25 09:23 | 43.40908 | -1.51024 | 7794 ft | 251 kts | 104° |
| 2026-04-25 09:23 | 43.40449 | -1.48692 | 8515 ft | 254 kts | 107° |
| 2026-04-25 09:23 | 43.39944 | -1.46357 | 9241 ft | 257 kts | 108° |
| 2026-04-25 09:24 | 43.39470 | -1.43972 | 9981 ft | 260 kts | 99° |
| 2026-04-25 09:24 | 43.39355 | -1.41407 | 10348 ft | 281 kts | 92° |
| 2026-04-25 09:24 | 43.39326 | -1.38616 | 10557 ft | 304 kts | 91° |
| 2026-04-25 09:24 | 43.39297 | -1.35596 | 10739 ft | 328 kts | 91° |
| 2026-04-25 09:25 | 43.39267 | -1.32356 | 10916 ft | 349 kts | 91° |
| 2026-04-25 09:25 | 43.39235 | -1.28966 | 11386 ft | 359 kts | 91° |
| 2026-04-25 09:25 | 43.39199 | -1.25503 | 12002 ft | 364 kts | 91° |
| 2026-04-25 09:25 | 43.39158 | -1.22004 | 12641 ft | 368 kts | 91° |
| 2026-04-25 09:26 | 43.39112 | -1.18469 | 13283 ft | 372 kts | 92° |
| 2026-04-25 09:26 | 43.39063 | -1.14900 | 13925 ft | 376 kts | 92° |
| 2026-04-25 09:26 | 43.39011 | -1.11280 | 14488 ft | 380 kts | 91° |
| 2026-04-25 09:26 | 43.38960 | -1.07636 | 15068 ft | 383 kts | 91° |
| 2026-04-25 09:27 | 43.38909 | -1.04017 | 15639 ft | 385 kts | 91° |
| 2026-04-25 09:27 | 43.38854 | -1.00318 | 16230 ft | 388 kts | 91° |
| 2026-04-25 09:27 | 43.38797 | -0.96609 | 16801 ft | 390 kts | 91° |
| 2026-04-25 09:27 | 43.38738 | -0.92854 | 17366 ft | 393 kts | 91° |
| 2026-04-25 09:28 | 43.38588 | -0.89097 | 17907 ft | 395 kts | 98° |
| 2026-04-25 09:28 | 43.38162 | -0.85354 | 18446 ft | 398 kts | 99° |
| 2026-04-25 09:28 | 43.37720 | -0.81579 | 18921 ft | 401 kts | 99° |
| 2026-04-25 09:28 | 43.37272 | -0.77789 | 19386 ft | 403 kts | 99° |
| 2026-04-25 09:29 | 43.36822 | -0.73969 | 19833 ft | 406 kts | 100° |
| 2026-04-25 09:29 | 43.36494 | -0.70101 | 20269 ft | 410 kts | 93° |
| 2026-04-25 09:29 | 43.36366 | -0.66174 | 20714 ft | 412 kts | 93° |
| 2026-04-25 09:29 | 43.36232 | -0.62233 | 21155 ft | 415 kts | 94° |
| 2026-04-25 09:30 | 43.36089 | -0.58256 | 21586 ft | 418 kts | 94° |
| 2026-04-25 09:30 | 43.35941 | -0.54256 | 22013 ft | 421 kts | 94° |
| 2026-04-25 09:30 | 43.35789 | -0.50238 | 22437 ft | 423 kts | 94° |
| 2026-04-25 09:30 | 43.35486 | -0.46204 | 22843 ft | 425 kts | 104° |
| 2026-04-25 09:31 | 43.34458 | -0.42411 | 23242 ft | 425 kts | 121° |
| 2026-04-25 09:31 | 43.33367 | -0.40190 | 23506 ft | 424 kts | 132° |
| 2026-04-25 09:31 | 43.30367 | -0.36712 | 23984 ft | 424 kts | 148° |
| 2026-04-25 09:31 | 43.27914 | -0.34464 | 24314 ft | 426 kts | 148° |
| 2026-04-25 09:32 | 43.25432 | -0.32206 | 24663 ft | 428 kts | 148° |
| 2026-04-25 09:32 | 43.22946 | -0.29948 | 24997 ft | 430 kts | 148° |
| 2026-04-25 09:32 | 43.20450 | -0.27676 | 25315 ft | 432 kts | 148° |
| 2026-04-25 09:32 | 43.17952 | -0.25393 | 25634 ft | 434 kts | 148° |
| 2026-04-25 09:33 | 43.15433 | -0.23092 | 25947 ft | 436 kts | 148° |
| 2026-04-25 09:33 | 43.12907 | -0.20788 | 26271 ft | 437 kts | 148° |
| 2026-04-25 09:33 | 43.10368 | -0.18476 | 26587 ft | 439 kts | 148° |
| 2026-04-25 09:33 | 43.07816 | -0.16155 | 26895 ft | 441 kts | 148° |
| 2026-04-25 09:34 | 43.06121 | -0.14615 | 27098 ft | 443 kts | 148° |
| 2026-04-25 09:34 | 43.03551 | -0.12283 | 27409 ft | 445 kts | 148° |
| 2026-04-25 09:34 | 43.00965 | -0.09933 | 27704 ft | 446 kts | 148° |
| 2026-04-25 09:34 | 42.98376 | -0.07585 | 28012 ft | 448 kts | 148° |
| 2026-04-25 09:35 | 42.95777 | -0.05233 | 28304 ft | 449 kts | 148° |
| 2026-04-25 09:35 | 42.93168 | -0.02872 | 28584 ft | 451 kts | 148° |
| 2026-04-25 09:35 | 42.90545 | -0.00507 | 28854 ft | 453 kts | 148° |
| 2026-04-25 09:35 | 42.87912 | 0.01863 | 29061 ft | 456 kts | 148° |
| 2026-04-25 09:36 | 42.85256 | 0.04257 | 29281 ft | 458 kts | 148° |
| 2026-04-25 09:36 | 42.82592 | 0.06659 | 29532 ft | 460 kts | 148° |
| 2026-04-25 09:36 | 42.79917 | 0.09067 | 29813 ft | 462 kts | 148° |
| 2026-04-25 09:36 | 42.77212 | 0.11442 | 30125 ft | 461 kts | 152° |
| 2026-04-25 09:37 | 42.74336 | 0.13324 | 30445 ft | 458 kts | 161° |
| 2026-04-25 09:37 | 42.71291 | 0.14552 | 30760 ft | 456 kts | 170° |
| 2026-04-25 09:37 | 42.68163 | 0.15125 | 31056 ft | 453 kts | 178° |
| 2026-04-25 09:37 | 42.65015 | 0.15193 | 31365 ft | 451 kts | 181° |
| 2026-04-25 09:38 | 42.61882 | 0.15218 | 31669 ft | 450 kts | 181° |
| 2026-04-25 09:38 | 42.58754 | 0.15243 | 31980 ft | 449 kts | 180° |
| 2026-04-25 09:38 | 42.55636 | 0.15271 | 32302 ft | 448 kts | 180° |
| 2026-04-25 09:38 | 42.52519 | 0.15301 | 32606 ft | 447 kts | 180° |
| 2026-04-25 09:39 | 42.49414 | 0.15330 | 32915 ft | 446 kts | 180° |
| 2026-04-25 09:39 | 42.46315 | 0.15360 | 33220 ft | 445 kts | 180° |
| 2026-04-25 09:39 | 42.43260 | 0.15521 | 33508 ft | 445 kts | 172° |
| 2026-04-25 09:40 | 42.37610 | 0.18772 | 34070 ft | 448 kts | 141° |
| 2026-04-25 09:40 | 42.35363 | 0.21705 | 34302 ft | 449 kts | 135° |
| 2026-04-25 09:40 | 42.33185 | 0.24730 | 34539 ft | 449 kts | 135° |
| 2026-04-25 09:40 | 42.31010 | 0.27755 | 34792 ft | 448 kts | 135° |
| 2026-04-25 09:41 | 42.28808 | 0.30817 | 35054 ft | 448 kts | 135° |
| 2026-04-25 09:41 | 42.26669 | 0.33788 | 35296 ft | 447 kts | 135° |
| 2026-04-25 09:41 | 42.24506 | 0.36788 | 35541 ft | 446 kts | 135° |
| 2026-04-25 09:41 | 42.22346 | 0.39776 | 35781 ft | 445 kts | 135° |
| 2026-04-25 09:42 | 42.20184 | 0.42754 | 35993 ft | 444 kts | 136° |
| 2026-04-25 09:42 | 42.18022 | 0.45724 | 36128 ft | 444 kts | 135° |
| 2026-04-25 09:42 | 42.13700 | 0.51652 | 36248 ft | 443 kts | 135° |
| 2026-04-25 09:43 | 42.11544 | 0.54613 | 36490 ft | 442 kts | 135° |
| 2026-04-25 09:43 | 42.09392 | 0.57574 | 36698 ft | 441 kts | 135° |
| 2026-04-25 09:43 | 42.07246 | 0.60519 | 36913 ft | 440 kts | 135° |
| 2026-04-25 09:43 | 42.05100 | 0.63454 | 37088 ft | 440 kts | 136° |
| 2026-04-25 09:44 | 42.00805 | 0.69309 | 37152 ft | 439 kts | 136° |
| 2026-04-25 09:44 | 41.96515 | 0.75153 | 37153 ft | 439 kts | 135° |
| 2026-04-25 09:45 | 41.92222 | 0.80998 | 37154 ft | 439 kts | 135° |
| 2026-04-25 09:45 | 41.87933 | 0.86828 | 37152 ft | 439 kts | 135° |
| 2026-04-25 09:46 | 41.83638 | 0.92655 | 37151 ft | 439 kts | 135° |
| 2026-04-25 09:46 | 41.79337 | 0.98478 | 37156 ft | 439 kts | 136° |
| 2026-04-25 09:47 | 41.75032 | 1.04288 | 37156 ft | 439 kts | 135° |
| 2026-04-25 09:47 | 41.70778 | 1.10169 | 37152 ft | 440 kts | 130° |
| 2026-04-25 09:48 | 41.67565 | 1.17127 | 37150 ft | 441 kts | 118° |
| 2026-04-25 09:48 | 41.64749 | 1.24408 | 37153 ft | 441 kts | 118° |
| 2026-04-25 09:49 | 41.61915 | 1.31671 | 37156 ft | 441 kts | 118° |
| 2026-04-25 09:49 | 41.59081 | 1.38935 | 37161 ft | 441 kts | 118° |
| 2026-04-25 09:50 | 41.56247 | 1.46186 | 37161 ft | 441 kts | 118° |
| 2026-04-25 09:50 | 41.53409 | 1.53439 | 37157 ft | 440 kts | 118° |
| 2026-04-25 09:51 | 41.50584 | 1.60630 | 37161 ft | 441 kts | 118° |
| 2026-04-25 09:51 | 41.47738 | 1.67858 | 37161 ft | 441 kts | 118° |
| 2026-04-25 09:52 | 41.44866 | 1.75140 | 37163 ft | 441 kts | 118° |
| 2026-04-25 09:52 | 41.42013 | 1.82368 | 37167 ft | 441 kts | 118° |
| 2026-04-25 09:53 | 41.39155 | 1.89592 | 37174 ft | 441 kts | 118° |
| 2026-04-25 09:53 | 41.36284 | 1.96809 | 37175 ft | 441 kts | 118° |
| 2026-04-25 09:54 | 41.33436 | 2.03970 | 37186 ft | 441 kts | 118° |
| 2026-04-25 09:54 | 41.30767 | 2.11313 | 37182 ft | 442 kts | 109° |
| 2026-04-25 09:55 | 41.29319 | 2.19250 | 37181 ft | 442 kts | 103° |
| 2026-04-25 09:55 | 41.28010 | 2.27238 | 37176 ft | 442 kts | 103° |
| 2026-04-25 09:56 | 41.26674 | 2.35281 | 37172 ft | 443 kts | 103° |
| 2026-04-25 09:56 | 41.25343 | 2.43264 | 37171 ft | 443 kts | 103° |
| 2026-04-25 09:57 | 41.24012 | 2.51259 | 37171 ft | 443 kts | 103° |
| 2026-04-25 09:57 | 41.22672 | 2.59246 | 37169 ft | 443 kts | 103° |
| 2026-04-25 09:58 | 41.21328 | 2.67228 | 37165 ft | 443 kts | 103° |
| 2026-04-25 09:58 | 41.19983 | 2.75157 | 37165 ft | 443 kts | 103° |
| 2026-04-25 09:59 | 41.18620 | 2.83137 | 37166 ft | 443 kts | 103° |
| 2026-04-25 09:59 | 41.17257 | 2.91114 | 37170 ft | 443 kts | 103° |
| 2026-04-25 10:00 | 41.15893 | 2.99097 | 37171 ft | 443 kts | 103° |
| 2026-04-25 10:00 | 41.14518 | 3.07067 | 37174 ft | 443 kts | 103° |
| 2026-04-25 10:01 | 41.13129 | 3.15044 | 37170 ft | 444 kts | 103° |
| 2026-04-25 10:01 | 41.11737 | 3.23021 | 37169 ft | 444 kts | 103° |
| 2026-04-25 10:02 | 41.10345 | 3.31001 | 37170 ft | 444 kts | 104° |
| 2026-04-25 10:02 | 41.08947 | 3.38988 | 37174 ft | 445 kts | 104° |
| 2026-04-25 10:03 | 41.07543 | 3.46966 | 37173 ft | 445 kts | 104° |
| 2026-04-25 10:03 | 41.06130 | 3.54942 | 37177 ft | 444 kts | 104° |
| 2026-04-25 10:04 | 41.04711 | 3.62913 | 37178 ft | 444 kts | 104° |
| 2026-04-25 10:04 | 41.03301 | 3.70806 | 37178 ft | 444 kts | 104° |
| 2026-04-25 10:05 | 41.01870 | 3.78757 | 37176 ft | 444 kts | 104° |
| 2026-04-25 10:05 | 41.00438 | 3.86707 | 37173 ft | 444 kts | 103° |
| 2026-04-25 10:06 | 40.99002 | 3.94661 | 37171 ft | 444 kts | 103° |
| 2026-04-25 10:06 | 40.97558 | 4.02616 | 37170 ft | 444 kts | 104° |
| 2026-04-25 10:07 | 40.96108 | 4.10557 | 37169 ft | 444 kts | 104° |
| 2026-04-25 10:07 | 40.94641 | 4.18503 | 37168 ft | 444 kts | 104° |
| 2026-04-25 10:08 | 40.93178 | 4.26440 | 37173 ft | 444 kts | 103° |
| 2026-04-25 10:08 | 40.91714 | 4.34383 | 37169 ft | 444 kts | 103° |
| 2026-04-25 10:09 | 40.90239 | 4.42318 | 37180 ft | 445 kts | 103° |
| 2026-04-25 10:09 | 40.88758 | 4.50260 | 37176 ft | 445 kts | 103° |
| 2026-04-25 10:10 | 40.87283 | 4.58206 | 37181 ft | 445 kts | 103° |
| 2026-04-25 10:10 | 40.85812 | 4.66149 | 37184 ft | 445 kts | 100° |
| 2026-04-25 10:11 | 40.85003 | 4.74241 | 37188 ft | 444 kts | 96° |
| 2026-04-25 10:11 | 40.84259 | 4.82344 | 37187 ft | 444 kts | 96° |
| 2026-04-25 10:12 | 40.83502 | 4.90441 | 37186 ft | 444 kts | 96° |
| 2026-04-25 10:13 | 40.82354 | 5.02519 | 37191 ft | 444 kts | 96° |
| 2026-04-25 10:13 | 40.81588 | 5.10602 | 37188 ft | 444 kts | 96° |
| 2026-04-25 10:14 | 40.80819 | 5.18674 | 37183 ft | 443 kts | 96° |
| 2026-04-25 10:14 | 40.80046 | 5.26744 | 37181 ft | 443 kts | 96° |
| 2026-04-25 10:15 | 40.79257 | 5.34814 | 37184 ft | 443 kts | 97° |
| 2026-04-25 10:15 | 40.78473 | 5.42878 | 37182 ft | 443 kts | 97° |
| 2026-04-25 10:16 | 40.77682 | 5.50942 | 37180 ft | 443 kts | 97° |
| 2026-04-25 10:16 | 40.76877 | 5.59005 | 37177 ft | 443 kts | 97° |
| 2026-04-25 10:17 | 40.76065 | 5.67065 | 37175 ft | 443 kts | 97° |
| 2026-04-25 10:17 | 40.75256 | 5.75138 | 37181 ft | 444 kts | 97° |
| 2026-04-25 10:18 | 40.74438 | 5.83207 | 37178 ft | 444 kts | 97° |
| 2026-04-25 10:18 | 40.73614 | 5.91283 | 37182 ft | 444 kts | 97° |
| 2026-04-25 10:19 | 40.72784 | 5.99353 | 37181 ft | 444 kts | 97° |
| 2026-04-25 10:19 | 40.71944 | 6.07415 | 37183 ft | 444 kts | 97° |
| 2026-04-25 10:20 | 40.71105 | 6.15485 | 37178 ft | 444 kts | 97° |
| 2026-04-25 10:20 | 40.70405 | 6.22180 | 37177 ft | 444 kts | 97° |
| 2026-04-25 10:21 | 40.69549 | 6.30243 | 37176 ft | 444 kts | 97° |
| 2026-04-25 10:21 | 40.68690 | 6.38304 | 37178 ft | 444 kts | 97° |
| 2026-04-25 10:22 | 40.67832 | 6.46358 | 37175 ft | 444 kts | 97° |
| 2026-04-25 10:22 | 40.66963 | 6.54420 | 37175 ft | 445 kts | 97° |
| 2026-04-25 10:23 | 40.66083 | 6.62487 | 37173 ft | 445 kts | 97° |
| 2026-04-25 10:23 | 40.65205 | 6.70552 | 37172 ft | 445 kts | 97° |
| 2026-04-25 10:24 | 40.64312 | 6.78618 | 37172 ft | 445 kts | 97° |
| 2026-04-25 10:24 | 40.63416 | 6.86679 | 37178 ft | 445 kts | 97° |
| 2026-04-25 10:25 | 40.62517 | 6.94747 | 37179 ft | 445 kts | 97° |
| 2026-04-25 10:25 | 40.61612 | 7.02813 | 37180 ft | 445 kts | 97° |
| 2026-04-25 10:26 | 40.60702 | 7.10873 | 37180 ft | 445 kts | 97° |
| 2026-04-25 10:26 | 40.59781 | 7.18930 | 37179 ft | 446 kts | 97° |
| 2026-04-25 10:27 | 40.58854 | 7.26996 | 37180 ft | 446 kts | 97° |
| 2026-04-25 10:27 | 40.57929 | 7.35049 | 37179 ft | 445 kts | 97° |
| 2026-04-25 10:28 | 40.57002 | 7.43050 | 37179 ft | 445 kts | 98° |
| 2026-04-25 10:28 | 40.56640 | 7.51138 | 37178 ft | 443 kts | 83° |
| 2026-04-25 10:29 | 40.57343 | 7.59192 | 37185 ft | 443 kts | 82° |
| 2026-04-25 10:29 | 40.58045 | 7.67242 | 37182 ft | 443 kts | 82° |
| 2026-04-25 10:30 | 40.58736 | 7.75296 | 37174 ft | 443 kts | 82° |
| 2026-04-25 10:30 | 40.59419 | 7.83346 | 37170 ft | 443 kts | 82° |
| 2026-04-25 10:31 | 40.60097 | 7.91394 | 37163 ft | 443 kts | 83° |
| 2026-04-25 10:31 | 40.60763 | 7.99450 | 37165 ft | 443 kts | 83° |
| 2026-04-25 10:32 | 40.61426 | 8.07505 | 37159 ft | 443 kts | 82° |
| 2026-04-25 10:32 | 40.62094 | 8.15562 | 37153 ft | 443 kts | 83° |
| 2026-04-25 10:33 | 40.62541 | 8.23652 | 37150 ft | 444 kts | 92° |
| 2026-04-25 10:33 | 40.61445 | 8.31645 | 37154 ft | 445 kts | 103° |
| 2026-04-25 10:34 | 40.59923 | 8.39542 | 37152 ft | 446 kts | 103° |
| 2026-04-25 10:34 | 40.58398 | 8.47451 | 37159 ft | 446 kts | 103° |
| 2026-04-25 10:35 | 40.56883 | 8.55349 | 37154 ft | 446 kts | 103° |
| 2026-04-25 10:35 | 40.55356 | 8.63267 | 37151 ft | 446 kts | 103° |
| 2026-04-25 10:36 | 40.53821 | 8.71173 | 37149 ft | 446 kts | 103° |
| 2026-04-25 10:36 | 40.52275 | 8.79070 | 37157 ft | 446 kts | 103° |
| 2026-04-25 10:37 | 40.50727 | 8.86956 | 37150 ft | 446 kts | 103° |
| 2026-04-25 10:37 | 40.49181 | 8.94855 | 37146 ft | 446 kts | 103° |
| 2026-04-25 10:38 | 40.47619 | 9.02736 | 37145 ft | 446 kts | 103° |
| 2026-04-25 10:38 | 40.46058 | 9.10613 | 37153 ft | 446 kts | 103° |
| 2026-04-25 10:39 | 40.44494 | 9.18483 | 37151 ft | 446 kts | 104° |
| 2026-04-25 10:39 | 40.42919 | 9.26356 | 37134 ft | 445 kts | 104° |
| 2026-04-25 10:40 | 40.41343 | 9.34217 | 37139 ft | 445 kts | 104° |
| 2026-04-25 10:40 | 40.39762 | 9.42068 | 37142 ft | 445 kts | 104° |
| 2026-04-25 10:41 | 40.38174 | 9.49918 | 37160 ft | 445 kts | 104° |
| 2026-04-25 10:41 | 40.36585 | 9.57762 | 37148 ft | 445 kts | 104° |
| 2026-04-25 10:42 | 40.35004 | 9.65543 | 37159 ft | 445 kts | 104° |
| 2026-04-25 10:42 | 40.33387 | 9.73429 | 37151 ft | 445 kts | 104° |
| 2026-04-25 10:43 | 40.31797 | 9.81200 | 37165 ft | 445 kts | 104° |
| 2026-04-25 10:43 | 40.30192 | 9.89028 | 37169 ft | 444 kts | 104° |
| 2026-04-25 10:44 | 40.28579 | 9.96847 | 37162 ft | 444 kts | 104° |
| 2026-04-25 10:44 | 40.26956 | 10.04649 | 37171 ft | 444 kts | 104° |
| 2026-04-25 10:45 | 40.25332 | 10.12448 | 37168 ft | 444 kts | 104° |
| 2026-04-25 10:45 | 40.23697 | 10.20242 | 37162 ft | 444 kts | 104° |
| 2026-04-25 10:46 | 40.22066 | 10.28031 | 37177 ft | 444 kts | 104° |
| 2026-04-25 10:46 | 40.20431 | 10.35812 | 37164 ft | 443 kts | 105° |
| 2026-04-25 10:47 | 40.18791 | 10.43583 | 37172 ft | 443 kts | 105° |
| 2026-04-25 10:47 | 40.17141 | 10.51342 | 37172 ft | 443 kts | 105° |
| 2026-04-25 10:48 | 40.15491 | 10.59099 | 37171 ft | 443 kts | 105° |
| 2026-04-25 10:48 | 40.13836 | 10.66855 | 37173 ft | 443 kts | 105° |
| 2026-04-25 10:49 | 40.12180 | 10.74600 | 37171 ft | 442 kts | 105° |
| 2026-04-25 10:49 | 40.10514 | 10.82337 | 37178 ft | 442 kts | 105° |
| 2026-04-25 10:50 | 40.08851 | 10.90065 | 37166 ft | 442 kts | 105° |
| 2026-04-25 10:50 | 40.07177 | 10.97788 | 37175 ft | 442 kts | 105° |
| 2026-04-25 10:51 | 40.05500 | 11.05514 | 37162 ft | 442 kts | 105° |
| 2026-04-25 10:51 | 40.03817 | 11.13230 | 37171 ft | 442 kts | 105° |
| 2026-04-25 10:52 | 40.02132 | 11.20946 | 37162 ft | 442 kts | 105° |
| 2026-04-25 10:52 | 40.00439 | 11.28659 | 37168 ft | 442 kts | 105° |
| 2026-04-25 10:53 | 39.98743 | 11.36367 | 37173 ft | 442 kts | 105° |
| 2026-04-25 10:53 | 39.97040 | 11.44061 | 37176 ft | 442 kts | 105° |
| 2026-04-25 10:54 | 39.95340 | 11.51746 | 37175 ft | 441 kts | 105° |
| 2026-04-25 10:54 | 39.93647 | 11.59375 | 37167 ft | 441 kts | 105° |
| 2026-04-25 10:55 | 39.91930 | 11.67052 | 37171 ft | 441 kts | 106° |
| 2026-04-25 10:55 | 39.90208 | 11.74723 | 37173 ft | 441 kts | 105° |
| 2026-04-25 10:56 | 39.88469 | 11.82366 | 37171 ft | 441 kts | 109° |
| 2026-04-25 10:56 | 39.85544 | 11.89337 | 37170 ft | 441 kts | 129° |
| 2026-04-25 10:57 | 39.80975 | 11.94645 | 37169 ft | 443 kts | 144° |
| 2026-04-25 10:57 | 39.75930 | 11.99257 | 37166 ft | 443 kts | 144° |
| 2026-04-25 10:58 | 39.70900 | 12.03899 | 37166 ft | 444 kts | 143° |
| 2026-04-25 10:58 | 39.65857 | 12.08540 | 37169 ft | 444 kts | 143° |
| 2026-04-25 10:59 | 39.60812 | 12.13164 | 37173 ft | 444 kts | 143° |
| 2026-04-25 10:59 | 39.55760 | 12.17785 | 37174 ft | 444 kts | 144° |
| 2026-04-25 11:00 | 39.50712 | 12.22394 | 37173 ft | 444 kts | 144° |
| 2026-04-25 11:00 | 39.45660 | 12.26995 | 37173 ft | 444 kts | 144° |
| 2026-04-25 11:01 | 39.40603 | 12.31587 | 37171 ft | 444 kts | 144° |
| 2026-04-25 11:01 | 39.35549 | 12.36167 | 37166 ft | 444 kts | 144° |
| 2026-04-25 11:02 | 39.30526 | 12.40724 | 37164 ft | 444 kts | 144° |
| 2026-04-25 11:02 | 39.25464 | 12.45311 | 37175 ft | 445 kts | 144° |
| 2026-04-25 11:03 | 39.20401 | 12.49888 | 37172 ft | 445 kts | 144° |
| 2026-04-25 11:03 | 39.15331 | 12.54451 | 37171 ft | 444 kts | 144° |
| 2026-04-25 11:04 | 39.10262 | 12.59003 | 37165 ft | 444 kts | 144° |
| 2026-04-25 11:04 | 39.05190 | 12.63555 | 37162 ft | 445 kts | 144° |
| 2026-04-25 11:05 | 39.00112 | 12.68103 | 37158 ft | 445 kts | 144° |
| 2026-04-25 11:05 | 38.95034 | 12.72652 | 37160 ft | 445 kts | 144° |
| 2026-04-25 11:06 | 38.89947 | 12.77201 | 37168 ft | 445 kts | 144° |
| 2026-04-25 11:06 | 38.84858 | 12.81739 | 37163 ft | 445 kts | 144° |
| 2026-04-25 11:07 | 38.79771 | 12.86270 | 37162 ft | 445 kts | 144° |
| 2026-04-25 11:07 | 38.75536 | 12.90026 | 37154 ft | 445 kts | 144° |
| 2026-04-25 11:08 | 38.70439 | 12.94543 | 37157 ft | 446 kts | 144° |
| 2026-04-25 11:08 | 38.65339 | 12.99061 | 37155 ft | 446 kts | 144° |
| 2026-04-25 11:09 | 38.60236 | 13.03572 | 37156 ft | 446 kts | 144° |
| 2026-04-25 11:09 | 38.55130 | 13.08083 | 37152 ft | 446 kts | 144° |
| 2026-04-25 11:10 | 38.50022 | 13.12594 | 37153 ft | 446 kts | 144° |
| 2026-04-25 11:10 | 38.44911 | 13.17085 | 37154 ft | 446 kts | 144° |
| 2026-04-25 11:11 | 38.39791 | 13.21569 | 37153 ft | 446 kts | 144° |
| 2026-04-25 11:11 | 38.34670 | 13.26054 | 36922 ft | 446 kts | 144° |
| 2026-04-25 11:11 | 38.32210 | 13.28444 | 36253 ft | 444 kts | 135° |
| 2026-04-25 11:12 | 38.30039 | 13.31239 | 35573 ft | 444 kts | 133° |
| 2026-04-25 11:12 | 38.27888 | 13.34049 | 34931 ft | 443 kts | 133° |
| 2026-04-25 11:12 | 38.25743 | 13.36857 | 34280 ft | 442 kts | 133° |
| 2026-04-25 11:12 | 38.23601 | 13.39662 | 33544 ft | 442 kts | 133° |
| 2026-04-25 11:13 | 38.21486 | 13.42430 | 32720 ft | 441 kts | 133° |
| 2026-04-25 11:13 | 38.19355 | 13.45218 | 31400 ft | 441 kts | 133° |
| 2026-04-25 11:13 | 38.17219 | 13.48013 | 30244 ft | 439 kts | 133° |
| 2026-04-25 11:13 | 38.15111 | 13.50768 | 29110 ft | 431 kts | 132° |
| 2026-04-25 11:14 | 38.13031 | 13.53481 | 28035 ft | 425 kts | 132° |
| 2026-04-25 11:14 | 38.10980 | 13.56151 | 27065 ft | 419 kts | 133° |
| 2026-04-25 11:14 | 38.08956 | 13.58781 | 26124 ft | 417 kts | 133° |
| 2026-04-25 11:14 | 38.06941 | 13.61392 | 25705 ft | 409 kts | 133° |
| 2026-04-25 11:15 | 38.04957 | 13.63961 | 25145 ft | 406 kts | 133° |
| 2026-04-25 11:15 | 38.02988 | 13.66511 | 24578 ft | 403 kts | 133° |
| 2026-04-25 11:15 | 38.01005 | 13.69079 | 24031 ft | 400 kts | 133° |
| 2026-04-25 11:15 | 37.99063 | 13.71590 | 23460 ft | 398 kts | 133° |
| 2026-04-25 11:16 | 37.95307 | 13.76441 | 22946 ft | 376 kts | 133° |
| 2026-04-25 11:16 | 37.93509 | 13.78767 | 22674 ft | 363 kts | 133° |
| 2026-04-25 11:16 | 37.91755 | 13.81034 | 22097 ft | 357 kts | 132° |
| 2026-04-25 11:17 | 37.90041 | 13.83245 | 21731 ft | 347 kts | 132° |
| 2026-04-25 11:17 | 37.88368 | 13.85404 | 21247 ft | 341 kts | 132° |
| 2026-04-25 11:17 | 37.86713 | 13.87537 | 20696 ft | 338 kts | 132° |
| 2026-04-25 11:17 | 37.85070 | 13.89656 | 20138 ft | 336 kts | 132° |
| 2026-04-25 11:18 | 37.83432 | 13.91771 | 19585 ft | 336 kts | 132° |
| 2026-04-25 11:18 | 37.81794 | 13.93886 | 19138 ft | 337 kts | 132° |
| 2026-04-25 11:18 | 37.80148 | 13.96006 | 18707 ft | 338 kts | 133° |
| 2026-04-25 11:18 | 37.78494 | 13.98129 | 18251 ft | 340 kts | 133° |
| 2026-04-25 11:19 | 37.76830 | 14.00256 | 17816 ft | 339 kts | 133° |
| 2026-04-25 11:19 | 37.75186 | 14.02358 | 17458 ft | 336 kts | 133° |
| 2026-04-25 11:19 | 37.73538 | 14.04465 | 17098 ft | 334 kts | 133° |
| 2026-04-25 11:19 | 37.71920 | 14.06533 | 16863 ft | 328 kts | 133° |
| 2026-04-25 11:20 | 37.70321 | 14.08576 | 16541 ft | 326 kts | 133° |
| 2026-04-25 11:20 | 37.68732 | 14.10602 | 16198 ft | 324 kts | 133° |
| 2026-04-25 11:20 | 37.67151 | 14.12620 | 15865 ft | 322 kts | 133° |
| 2026-04-25 11:20 | 37.65577 | 14.14632 | 15557 ft | 321 kts | 133° |
| 2026-04-25 11:21 | 37.64013 | 14.16627 | 15256 ft | 319 kts | 133° |
| 2026-04-25 11:21 | 37.62453 | 14.18613 | 14945 ft | 318 kts | 133° |
| 2026-04-25 11:21 | 37.60896 | 14.20592 | 14643 ft | 317 kts | 133° |
| 2026-04-25 11:21 | 37.59349 | 14.22560 | 14324 ft | 316 kts | 133° |
| 2026-04-25 11:22 | 37.57808 | 14.24527 | 14016 ft | 315 kts | 133° |
| 2026-04-25 11:22 | 37.56789 | 14.25825 | 13811 ft | 314 kts | 133° |
| 2026-04-25 11:22 | 37.54734 | 14.28437 | 13349 ft | 313 kts | 133° |
| 2026-04-25 11:22 | 37.53208 | 14.30376 | 13027 ft | 311 kts | 133° |
| 2026-04-25 11:23 | 37.51689 | 14.32304 | 12705 ft | 309 kts | 133° |
| 2026-04-25 11:23 | 37.50181 | 14.34218 | 12386 ft | 307 kts | 133° |
| 2026-04-25 11:23 | 37.48687 | 14.36114 | 11932 ft | 303 kts | 133° |
| 2026-04-25 11:23 | 37.47194 | 14.38009 | 11178 ft | 307 kts | 134° |
| 2026-04-25 11:24 | 37.45683 | 14.39926 | 10422 ft | 310 kts | 134° |
| 2026-04-25 11:24 | 37.44185 | 14.41824 | 10076 ft | 302 kts | 134° |
| 2026-04-25 11:24 | 37.42783 | 14.43725 | 9650 ft | 292 kts | 124° |
| 2026-04-25 11:24 | 37.41885 | 14.45971 | 9071 ft | 286 kts | 104° |
| 2026-04-25 11:25 | 37.41648 | 14.48383 | 8790 ft | 268 kts | 85° |
| 2026-04-25 11:25 | 37.41835 | 14.50635 | 8551 ft | 253 kts | 82° |
| 2026-04-25 11:25 | 37.42028 | 14.52804 | 8104 ft | 247 kts | 82° |
| 2026-04-25 11:25 | 37.42214 | 14.54943 | 7619 ft | 245 kts | 82° |
| 2026-04-25 11:26 | 37.42400 | 14.57063 | 7186 ft | 244 kts | 82° |
| 2026-04-25 11:26 | 37.42586 | 14.59180 | 6891 ft | 242 kts | 82° |
| 2026-04-25 11:26 | 37.42772 | 14.61275 | 6575 ft | 241 kts | 82° |
| 2026-04-25 11:26 | 37.42956 | 14.63360 | 6231 ft | 239 kts | 83° |
| 2026-04-25 11:27 | 37.43140 | 14.65435 | 5912 ft | 238 kts | 82° |
| 2026-04-25 11:27 | 37.43323 | 14.67501 | 5604 ft | 237 kts | 83° |
| 2026-04-25 11:27 | 37.43500 | 14.69515 | 5379 ft | 229 kts | 83° |
| 2026-04-25 11:27 | 37.43613 | 14.70832 | 5304 ft | 219 kts | 83° |
| 2026-04-25 11:28 | 37.43816 | 14.73279 | 5019 ft | 208 kts | 83° |
| 2026-04-25 11:28 | 37.43971 | 14.75065 | 4778 ft | 200 kts | 83° |
| 2026-04-25 11:28 | 37.44119 | 14.76771 | 4498 ft | 194 kts | 83° |
| 2026-04-25 11:28 | 37.44265 | 14.78448 | 4240 ft | 193 kts | 84° |
| 2026-04-25 11:29 | 37.44409 | 14.80115 | 3981 ft | 191 kts | 84° |
| 2026-04-25 11:29 | 37.44553 | 14.81772 | 3735 ft | 190 kts | 84° |
| 2026-04-25 11:29 | 37.44696 | 14.83426 | 3482 ft | 190 kts | 84° |
| 2026-04-25 11:29 | 37.44838 | 14.85074 | 3228 ft | 189 kts | 84° |
| 2026-04-25 11:30 | 37.44980 | 14.86715 | 2963 ft | 188 kts | 84° |
| 2026-04-25 11:30 | 37.45120 | 14.88352 | 2725 ft | 188 kts | 84° |
| 2026-04-25 11:30 | 37.45260 | 14.89982 | 2476 ft | 187 kts | 84° |
| 2026-04-25 11:30 | 37.45399 | 14.91603 | 2227 ft | 186 kts | 84° |
| 2026-04-25 11:31 | 37.45538 | 14.93226 | 1988 ft | 187 kts | 85° |
| 2026-04-25 11:31 | 37.45675 | 14.94823 | 1727 ft | 179 kts | 85° |
| 2026-04-25 11:31 | 37.45803 | 14.96319 | 1499 ft | 167 kts | 86° |
| 2026-04-25 11:31 | 37.45923 | 14.97725 | 1281 ft | 157 kts | 86° |
| 2026-04-25 11:32 | 37.46040 | 14.99075 | 1090 ft | 153 kts | 86° |
| 2026-04-25 11:32 | 37.46159 | 15.00388 | 892 ft | 149 kts | 86° |
| 2026-04-25 11:32 | 37.46264 | 15.01682 | 687 ft | 147 kts | 87° |
| 2026-04-25 11:32 | 37.46372 | 15.02947 | 479 ft | 145 kts | 85° |
| 2026-04-25 11:33 | 37.46478 | 15.04199 | 305 ft | 142 kts | 85° |
| 2026-04-25 11:33 | 37.46578 | 15.05433 | 83 ft | 141 kts | 85° |
| 2026-04-25 11:33 | 37.46675 | 15.06571 | 30 ft | 115 kts | 84° |
| 2026-04-25 11:33 | 37.46731 | 15.07246 | 25 ft | 50 kts | 84° |
| 2026-04-25 11:34 | 37.46764 | 15.07539 | 25 ft | 18 kts | 77° |
| 2026-04-25 11:34 | 37.46810 | 15.07684 | 27 ft | 18 kts | 54° |
| 2026-04-25 11:34 | 37.46876 | 15.07803 | 23 ft | 14 kts | 40° |
| 2026-04-25 11:34 | 37.46937 | 15.07760 | 24 ft | 10 kts | 274° |
| 2026-04-25 11:35 | 37.46932 | 15.07686 | 26 ft | 7 kts | 264° |
| 2026-04-25 11:35 | 37.46928 | 15.07639 | 27 ft | 4 kts | 264° |
| 2026-04-25 11:35 | 37.46918 | 15.07546 | 27 ft | 20 kts | 261° |
| 2026-04-25 11:35 | 37.46905 | 15.07359 | 27 ft | 21 kts | 266° |
| 2026-04-25 11:36 | 37.46890 | 15.07185 | 29 ft | 19 kts | 263° |
| 2026-04-25 11:36 | 37.46878 | 15.07043 | 27 ft | 14 kts | 264° |
| 2026-04-25 11:36 | 37.46867 | 15.06916 | 25 ft | 15 kts | 264° |
| 2026-04-25 11:36 | 37.46858 | 15.06799 | 27 ft | 12 kts | 263° |
| 2026-04-25 11:37 | 37.46850 | 15.06707 | 28 ft | 9 kts | 263° |
| 2026-04-25 11:37 | 37.46842 | 15.06632 | 28 ft | 8 kts | 263° |
| 2026-04-25 11:37 | 37.46838 | 15.06559 | 27 ft | 7 kts | 276° |
| 2026-04-25 11:37 | 37.46857 | 15.06501 | 26 ft | 7 kts | 307° |
| 2026-04-25 11:38 | 37.46899 | 15.06507 | 29 ft | 7 kts | 18° |
| 2026-04-25 11:38 | 37.46934 | 15.06521 | 26 ft | 1 kts | 18° |
| 2026-04-25 11:38 | 37.46944 | 15.06525 | 26 ft | 2 kts | 19° |
| 2026-04-25 11:38 | 37.46947 | 15.06527 | 26 ft | 0 kts | 19° |
| 2026-04-25 11:44 | 37.46948 | 15.06527 | 27 ft | 0 kts | 19° |